Lulworth, United Kingdom
Current Conditions -  °F | °C
As of 9:20 PM on Saturday 22 Nov 2014 (Local Time) from EGHH Reporting Station
Light Fog Light Fog  
Wind Chill: 50°   Ceiling: Unl
Heat Index: 50°   Visibility: 2.5mi
Dew Point: 50°   Wind: 3mph
Humidity: 100%   Direction: 330°NNW
Pressure: 29.94"   Gusts: NA
Location:  50.62°N, 2.17°W
Report Text: EGHH 222120Z 33003KT 4000 1000E MIFG NSC 10/10 Q1014
Loading
Personal Weather Stations






























Interactive Weather Map New forecast layout! Learn more

10-Day Weather Forecast

Advertisements
Track Severe Weather on mobile